createdAt,value
2023-01-29T00:00:11.380Z,16.55
2023-01-29T00:02:37.826Z,20.77
2023-01-29T00:05:25.576Z,16.52
2023-01-29T00:07:52.370Z,18.70
2023-01-29T00:10:18.823Z,16.80
2023-01-29T00:12:45.193Z,17.40
2023-01-29T00:15:12.140Z,20.67
2023-01-29T00:17:38.499Z,18.25
2023-01-29T00:20:05.264Z,21.20
2023-01-29T00:22:31.620Z,19.83
2023-01-29T00:24:58.212Z,20.48
2023-01-29T00:27:24.518Z,16.83
2023-01-29T00:30:09.583Z,21.67
2023-01-29T00:32:36.162Z,19.13
2023-01-29T00:35:02.688Z,17.40
2023-01-29T00:37:29.222Z,21.98
2023-01-29T00:39:56.675Z,20.77
2023-01-29T00:42:41.601Z,19.08
2023-01-29T00:45:08.269Z,20.02
2023-01-29T00:47:34.627Z,23.27
2023-01-29T00:50:07.563Z,17.83
2023-01-29T00:52:36.288Z,18.60
2023-01-29T00:55:05.134Z,19.00
2023-01-29T00:57:33.626Z,23.45
2023-01-29T01:00:00.012Z,18.97
2023-01-29T01:02:45.677Z,20.00
2023-01-29T01:05:18.134Z,20.00
2023-01-29T01:07:49.642Z,17.40
2023-01-29T01:10:21.637Z,19.80
2023-01-29T01:12:58.767Z,19.00
2023-01-29T01:15:31.542Z,20.80
2023-01-29T01:18:00.765Z,21.00
2023-01-29T01:20:30.847Z,17.92
2023-01-29T01:22:57.459Z,17.98
2023-01-29T01:25:25.712Z,18.00
2023-01-29T01:27:53.739Z,19.02
2023-01-29T01:30:20.185Z,17.83
2023-01-29T01:32:46.583Z,18.63
2023-01-29T01:35:14.757Z,18.02
2023-01-29T01:37:41.661Z,19.23
2023-01-29T01:40:20.345Z,18.70
2023-01-29T01:42:49.458Z,19.55
2023-01-29T01:45:29.477Z,18.10
2023-01-29T01:48:26.406Z,19.02
2023-01-29T01:51:03.392Z,15.33
2023-01-29T01:53:35.214Z,20.65
2023-01-29T01:56:06.496Z,18.90
2023-01-29T01:58:41.508Z,17.05
2023-01-29T02:01:09.409Z,18.95
2023-01-29T02:04:02.424Z,21.23
2023-01-29T02:06:47.547Z,18.52
2023-01-29T02:09:38.746Z,16.67
2023-01-29T02:12:11.477Z,19.67
2023-01-29T02:14:40.057Z,17.48
2023-01-29T02:17:08.193Z,14.47
2023-01-29T02:19:59.536Z,18.92
2023-01-29T02:22:34.907Z,19.77
2023-01-29T02:25:32.967Z,21.52
2023-01-29T02:28:05.160Z,20.13
2023-01-29T02:30:43.620Z,16.47
2023-01-29T02:33:25.990Z,19.17
2023-01-29T02:36:13.892Z,20.70
2023-01-29T02:39:17.282Z,23.38
2023-01-29T02:42:00.572Z,20.88
2023-01-29T02:44:38.594Z,19.07
2023-01-29T02:47:21.990Z,18.90
2023-01-29T02:49:56.184Z,19.83
2023-01-29T02:52:51.572Z,21.77
2023-01-29T02:55:43.720Z,17.40
2023-01-29T02:58:17.339Z,20.83
2023-01-29T03:00:47.506Z,18.48
2023-01-29T03:03:21.992Z,19.02
2023-01-29T03:06:06.333Z,17.70
2023-01-29T03:08:45.308Z,22.20
2023-01-29T03:11:13.729Z,21.17
2023-01-29T03:14:04.785Z,25.38
2023-01-29T03:16:35.452Z,19.65
2023-01-29T03:19:10.816Z,19.00
2023-01-29T03:21:51.089Z,20.20
2023-01-29T03:24:46.873Z,21.60
2023-01-29T03:27:34.989Z,23.30
2023-01-29T03:30:20.815Z,17.38
2023-01-29T03:32:51.751Z,21.65
2023-01-29T03:35:33.354Z,23.15
2023-01-29T03:38:00.874Z,19.70
2023-01-29T03:40:33.869Z,22.90
2023-01-29T03:43:11.371Z,23.08
2023-01-29T03:46:00.482Z,22.15
2023-01-29T03:48:41.515Z,22.08
2023-01-29T03:51:17.793Z,22.43
2023-01-29T03:53:50.353Z,22.27
2023-01-29T03:56:21.408Z,22.80
2023-01-29T03:58:57.235Z,24.77
2023-01-29T04:01:48.572Z,20.98
2023-01-29T04:04:19.834Z,21.80
2023-01-29T04:06:48.712Z,22.95
2023-01-29T04:09:31.390Z,23.17
2023-01-29T04:12:04.698Z,21.83
2023-01-29T04:14:32.611Z,22.55
2023-01-29T04:17:03.425Z,20.03
2023-01-29T04:19:30.185Z,23.88
2023-01-29T04:22:10.720Z,23.83
2023-01-29T04:24:37.492Z,22.38
2023-01-29T04:27:42.437Z,23.75
2023-01-29T04:30:36.545Z,20.73
2023-01-29T04:33:27.865Z,23.00
2023-01-29T04:36:14.138Z,24.98
2023-01-29T04:38:51.536Z,21.98
2023-01-29T04:41:30.620Z,20.75
2023-01-29T04:44:18.593Z,21.77
2023-01-29T04:47:06.521Z,22.55
2023-01-29T04:49:46.699Z,25.63
2023-01-29T04:52:22.068Z,23.50
2023-01-29T04:55:00.143Z,24.08
2023-01-29T04:57:35.688Z,24.73
2023-01-29T05:00:23.937Z,22.83
2023-01-29T05:02:51.164Z,23.58
2023-01-29T05:05:20.349Z,23.77
2023-01-29T05:07:47.960Z,23.15
2023-01-29T05:10:18.319Z,24.23
2023-01-29T05:12:49.425Z,25.75
2023-01-29T05:15:23.030Z,20.88
2023-01-29T05:17:49.499Z,24.17
2023-01-29T05:20:16.353Z,22.70
2023-01-29T05:22:44.499Z,22.87
2023-01-29T05:25:23.825Z,24.08
2023-01-29T05:28:09.958Z,24.27
2023-01-29T05:30:38.705Z,19.45
2023-01-29T05:33:16.970Z,23.02
2023-01-29T05:35:43.651Z,24.03
2023-01-29T05:38:10.107Z,22.92
2023-01-29T05:40:37.025Z,20.45
2023-01-29T05:43:04.414Z,24.55
2023-01-29T05:45:30.736Z,23.88
2023-01-29T05:47:58.686Z,23.60
2023-01-29T05:50:26.953Z,23.13
2023-01-29T05:53:01.173Z,22.08
2023-01-29T05:55:29.692Z,21.50
2023-01-29T05:57:56.137Z,22.20
2023-01-29T06:00:22.578Z,26.40
2023-01-29T06:02:49.401Z,25.80
2023-01-29T06:05:15.727Z,21.27
2023-01-29T06:07:45.157Z,22.92
2023-01-29T06:10:17.204Z,22.50
2023-01-29T06:12:44.596Z,27.57
2023-01-29T06:15:12.285Z,26.83
2023-01-29T06:17:38.623Z,25.15
2023-01-29T06:20:05.669Z,20.17
2023-01-29T06:22:33.516Z,21.27
2023-01-29T06:24:59.988Z,23.87
2023-01-29T06:27:26.296Z,22.92
2023-01-29T06:29:52.621Z,24.00
2023-01-29T06:32:19.058Z,20.73
2023-01-29T06:34:46.764Z,21.33
2023-01-29T06:37:14.230Z,19.57
2023-01-29T06:39:40.579Z,20.05
2023-01-29T06:42:07.116Z,21.95
2023-01-29T06:44:33.422Z,22.45
2023-01-29T06:46:59.874Z,19.15
2023-01-29T06:49:26.207Z,22.73
2023-01-29T06:51:52.517Z,23.92
2023-01-29T06:54:18.848Z,18.35
2023-01-29T06:56:45.165Z,22.10
2023-01-29T06:59:12.523Z,21.83
2023-01-29T07:01:41.344Z,20.17
2023-01-29T07:04:07.895Z,22.13
2023-01-29T07:06:35.029Z,19.90
2023-01-29T07:09:01.981Z,19.98
2023-01-29T07:11:28.407Z,19.77
2023-01-29T07:13:54.761Z,21.87
2023-01-29T07:16:21.536Z,22.85
2023-01-29T07:18:47.884Z,21.10
2023-01-29T07:21:14.190Z,19.10
2023-01-29T07:23:41.188Z,18.00
2023-01-29T07:26:07.625Z,22.00
2023-01-29T07:28:40.422Z,18.40
2023-01-29T07:31:08.114Z,20.42
2023-01-29T07:33:34.804Z,19.48
2023-01-29T07:36:01.164Z,23.40
2023-01-29T07:38:27.644Z,22.67
2023-01-29T07:40:54.264Z,17.00
2023-01-29T07:43:20.852Z,24.40
2023-01-29T07:45:47.330Z,17.95
2023-01-29T07:48:13.712Z,20.25
2023-01-29T07:50:40.727Z,23.63
2023-01-29T07:53:07.468Z,20.20
2023-01-29T07:55:33.997Z,21.08
2023-01-29T07:58:03.320Z,20.80
2023-01-29T08:00:30.988Z,18.38
2023-01-29T08:03:10.715Z,21.77
2023-01-29T08:05:37.083Z,22.52
2023-01-29T08:08:07.271Z,23.30
2023-01-29T08:10:34.911Z,22.30
2023-01-29T08:13:02.022Z,20.75
2023-01-29T08:15:29.139Z,20.37
2023-01-29T08:17:58.327Z,15.40
2023-01-29T08:20:25.634Z,22.90
2023-01-29T08:22:59.322Z,17.70
2023-01-29T08:25:25.965Z,18.60
2023-01-29T08:27:52.490Z,16.60
2023-01-29T08:30:18.829Z,20.88
2023-01-29T08:32:45.225Z,20.05
2023-01-29T08:35:11.551Z,20.17
2023-01-29T08:37:37.867Z,23.20
2023-01-29T08:40:04.717Z,17.63
2023-01-29T08:42:31.116Z,20.45
2023-01-29T08:44:57.426Z,19.52
2023-01-29T08:47:23.788Z,20.50
2023-01-29T08:49:50.110Z,22.50
2023-01-29T08:52:16.561Z,21.90
2023-01-29T08:54:42.900Z,20.00
2023-01-29T08:57:09.252Z,23.13
2023-01-29T08:59:35.607Z,19.88
2023-01-29T09:02:01.977Z,18.17
2023-01-29T09:04:28.316Z,20.83
2023-01-29T09:06:54.625Z,19.15
2023-01-29T09:09:20.982Z,21.27
2023-01-29T09:11:47.320Z,19.45
2023-01-29T09:14:14.472Z,19.92
2023-01-29T09:16:41.031Z,18.40
2023-01-29T09:19:08.189Z,18.67
2023-01-29T09:21:34.531Z,16.52
2023-01-29T09:24:00.883Z,16.33
2023-01-29T09:26:27.236Z,18.40
2023-01-29T09:28:53.588Z,17.03
2023-01-29T09:31:20.033Z,18.17
2023-01-29T09:33:46.400Z,19.80
2023-01-29T09:36:12.759Z,17.08
2023-01-29T09:38:39.317Z,18.35
2023-01-29T09:41:42.090Z,18.03
2023-01-29T09:44:24.149Z,20.00
2023-01-29T09:46:52.655Z,18.50
2023-01-29T09:49:35.632Z,16.13
2023-01-29T09:52:23.289Z,19.30
2023-01-29T09:54:54.557Z,20.67
2023-01-29T09:57:27.702Z,17.40
2023-01-29T09:59:55.285Z,19.75
2023-01-29T10:02:39.954Z,17.83
2023-01-29T10:05:16.431Z,18.52
2023-01-29T10:08:03.724Z,21.03
2023-01-29T10:10:49.285Z,17.38
2023-01-29T10:13:27.364Z,22.52
2023-01-29T10:16:14.089Z,19.17
2023-01-29T10:18:52.414Z,22.98
2023-01-29T10:21:44.268Z,19.20
2023-01-29T10:24:35.280Z,20.50
2023-01-29T10:27:09.326Z,23.20
2023-01-29T10:29:35.859Z,18.83
2023-01-29T10:32:05.782Z,18.27
2023-01-29T10:34:41.251Z,20.70
2023-01-29T10:37:39.004Z,17.77
2023-01-29T10:40:20.548Z,23.60
2023-01-29T10:42:54.120Z,21.25
2023-01-29T10:45:39.930Z,19.85
2023-01-29T10:48:28.293Z,22.10
2023-01-29T10:51:01.779Z,20.80
2023-01-29T10:54:04.905Z,20.88
2023-01-29T10:56:43.334Z,21.73
2023-01-29T10:59:32.714Z,21.20
2023-01-29T11:02:00.277Z,18.50
2023-01-29T11:04:28.706Z,21.88
2023-01-29T11:06:55.035Z,19.10
2023-01-29T11:09:37.419Z,20.40
2023-01-29T11:12:11.463Z,22.08
2023-01-29T11:14:53.354Z,22.10
2023-01-29T11:17:22.776Z,21.75
2023-01-29T11:19:51.603Z,22.88
2023-01-29T11:22:29.587Z,24.08
2023-01-29T11:25:19.258Z,21.08
2023-01-29T11:27:52.312Z,22.10
2023-01-29T11:30:25.533Z,24.52
2023-01-29T11:33:10.453Z,24.42
2023-01-29T11:35:37.002Z,23.88
2023-01-29T11:38:27.488Z,24.70
2023-01-29T11:41:06.464Z,26.30
2023-01-29T11:43:33.229Z,24.10
2023-01-29T11:46:05.778Z,24.73
2023-01-29T11:48:40.852Z,25.85
2023-01-29T11:51:10.069Z,32.65
2023-01-29T11:53:37.952Z,23.73
2023-01-29T11:56:15.803Z,25.38
2023-01-29T11:58:42.804Z,26.23
2023-01-29T12:01:10.475Z,20.67
2023-01-29T12:03:43.685Z,22.23
2023-01-29T12:06:25.252Z,25.83
2023-01-29T12:09:00.872Z,24.50
2023-01-29T12:11:30.427Z,23.40
2023-01-29T12:14:02.485Z,29.95
2023-01-29T12:16:39.785Z,24.90
2023-01-29T12:19:17.027Z,26.13
2023-01-29T12:21:48.810Z,21.95
2023-01-29T12:24:23.002Z,24.23
2023-01-29T12:27:00.883Z,25.83
2023-01-29T12:29:55.060Z,23.55
2023-01-29T12:32:27.502Z,25.60
2023-01-29T12:35:01.646Z,26.92
2023-01-29T12:38:00.713Z,26.73
2023-01-29T12:40:32.855Z,26.58
2023-01-29T12:43:10.078Z,31.90
2023-01-29T12:45:37.515Z,26.47
2023-01-29T12:48:10.474Z,25.73
2023-01-29T12:50:38.314Z,32.38
2023-01-29T12:53:15.926Z,28.08
2023-01-29T12:55:47.867Z,26.40
2023-01-29T12:58:18.795Z,26.63
2023-01-29T13:00:48.276Z,28.73
2023-01-29T13:03:22.621Z,27.42
2023-01-29T13:05:55.222Z,25.77
2023-01-29T13:08:36.838Z,25.65
2023-01-29T13:11:10.847Z,27.33
2023-01-29T13:13:44.909Z,26.17
2023-01-29T13:16:15.652Z,24.17
2023-01-29T13:18:59.344Z,30.13
2023-01-29T13:21:30.727Z,25.08
2023-01-29T13:24:02.209Z,27.30
2023-01-29T13:26:28.982Z,28.30
2023-01-29T13:28:55.440Z,27.30
2023-01-29T13:31:37.420Z,29.02
2023-01-29T13:34:14.693Z,25.88
2023-01-29T13:36:44.006Z,24.33
2023-01-29T13:39:20.698Z,24.23
2023-01-29T13:41:47.210Z,28.38
2023-01-29T13:44:27.044Z,27.75
2023-01-29T13:47:42.101Z,28.02
2023-01-29T13:50:19.397Z,27.83
2023-01-29T13:52:57.475Z,25.77
2023-01-29T13:55:31.355Z,24.98
2023-01-29T13:58:15.787Z,25.33
2023-01-29T14:00:42.180Z,27.33
2023-01-29T14:03:08.725Z,25.23
2023-01-29T14:05:42.306Z,23.52
2023-01-29T14:08:17.675Z,26.08
2023-01-29T14:10:44.500Z,24.15
2023-01-29T14:13:19.818Z,24.60
2023-01-29T14:16:11.744Z,24.90
2023-01-29T14:18:47.764Z,27.17
2023-01-29T14:21:14.100Z,26.83
2023-01-29T14:23:44.916Z,22.35
2023-01-29T14:26:34.292Z,26.65
2023-01-29T14:29:04.818Z,23.47
2023-01-29T14:31:40.649Z,25.90
2023-01-29T14:34:20.016Z,20.15
2023-01-29T14:36:47.621Z,23.23
2023-01-29T14:39:43.372Z,23.17
2023-01-29T14:42:24.605Z,24.40
2023-01-29T14:44:53.873Z,23.83
2023-01-29T14:47:20.168Z,24.00
2023-01-29T14:49:58.626Z,22.33
2023-01-29T14:52:32.752Z,23.75
2023-01-29T14:55:02.624Z,24.83
2023-01-29T14:57:30.575Z,21.35
2023-01-29T15:00:00.951Z,23.48
2023-01-29T15:02:38.660Z,24.60
2023-01-29T15:05:11.240Z,23.27
2023-01-29T15:07:44.934Z,21.10
2023-01-29T15:10:38.331Z,22.52
2023-01-29T15:13:14.446Z,22.92
2023-01-29T15:15:50.286Z,25.27
2023-01-29T15:18:27.028Z,24.58
2023-01-29T15:21:04.895Z,20.93
2023-01-29T15:23:34.075Z,24.60
2023-01-29T15:26:03.196Z,21.95
2023-01-29T15:28:34.652Z,22.63
2023-01-29T15:31:07.631Z,24.73
2023-01-29T15:33:38.602Z,22.97
2023-01-29T15:36:08.302Z,23.83
2023-01-29T15:38:35.228Z,21.73
2023-01-29T15:41:23.652Z,21.45
2023-01-29T15:43:56.729Z,23.08
2023-01-29T15:46:29.954Z,22.37
2023-01-29T15:49:00.678Z,21.83
2023-01-29T15:51:28.688Z,25.38
2023-01-29T15:53:59.668Z,24.02
2023-01-29T15:56:30.825Z,23.23
2023-01-29T15:59:00.660Z,24.57
2023-01-29T16:01:28.997Z,28.77
2023-01-29T16:04:01.053Z,23.48
2023-01-29T16:06:29.931Z,25.15
2023-01-29T16:08:56.646Z,22.10
2023-01-29T16:11:23.126Z,24.13
2023-01-29T16:13:51.479Z,26.98
2023-01-29T16:16:24.783Z,24.05
2023-01-29T16:19:00.133Z,24.27
2023-01-29T16:21:35.192Z,19.95
2023-01-29T16:24:13.821Z,23.03
2023-01-29T16:26:44.719Z,21.42
2023-01-29T16:29:15.990Z,22.73
2023-01-29T16:31:44.622Z,21.90
2023-01-29T16:34:22.716Z,24.60
2023-01-29T16:36:49.942Z,26.77
2023-01-29T16:39:26.954Z,19.65
2023-01-29T16:42:21.824Z,22.63
2023-01-29T16:45:05.461Z,27.15
2023-01-29T16:47:37.581Z,21.27
2023-01-29T16:50:22.293Z,22.80
2023-01-29T16:52:58.095Z,21.00
2023-01-29T16:55:25.516Z,24.20
2023-01-29T16:57:55.827Z,26.05
2023-01-29T17:00:27.559Z,24.45
2023-01-29T17:03:15.305Z,25.40
2023-01-29T17:05:42.104Z,21.63
2023-01-29T17:08:22.826Z,29.73
2023-01-29T17:10:49.684Z,23.27
2023-01-29T17:13:39.120Z,22.05
2023-01-29T17:16:20.617Z,24.03
2023-01-29T17:18:46.973Z,27.45
2023-01-29T17:21:13.297Z,26.67
2023-01-29T17:23:39.794Z,26.38
2023-01-29T17:26:09.834Z,28.55
2023-01-29T17:28:36.168Z,31.43
2023-01-29T17:31:06.594Z,25.95
2023-01-29T17:33:34.574Z,27.98
2023-01-29T17:36:00.982Z,29.67
2023-01-29T17:38:27.338Z,24.75
2023-01-29T17:41:09.065Z,32.23
2023-01-29T17:43:35.412Z,29.05
2023-01-29T17:46:01.763Z,30.90
2023-01-29T17:48:29.799Z,27.10
2023-01-29T17:51:00.360Z,29.88
2023-01-29T17:53:43.340Z,27.87
2023-01-29T17:56:16.913Z,28.30
2023-01-29T17:58:43.246Z,24.60
2023-01-29T18:01:09.579Z,28.05
2023-01-29T18:03:36.160Z,22.52
2023-01-29T18:06:02.618Z,25.37
2023-01-29T18:08:32.803Z,33.10
2023-01-29T18:11:00.261Z,31.25
2023-01-29T18:13:27.387Z,24.73
2023-01-29T18:15:54.127Z,27.23
2023-01-29T18:18:22.940Z,28.03
2023-01-29T18:20:49.933Z,27.00
2023-01-29T18:23:16.639Z,31.00
2023-01-29T18:25:43.426Z,23.17
2023-01-29T18:28:14.592Z,25.48
2023-01-29T18:30:42.034Z,26.33
2023-01-29T18:33:08.751Z,33.38
2023-01-29T18:35:35.138Z,31.10
2023-01-29T18:38:01.455Z,26.25
2023-01-29T18:40:27.804Z,30.85
2023-01-29T18:42:54.160Z,33.87
2023-01-29T18:45:20.640Z,30.73
2023-01-29T18:47:48.288Z,25.80
2023-01-29T18:50:14.647Z,27.65
2023-01-29T18:52:41.201Z,30.10
2023-01-29T18:55:09.620Z,29.27
2023-01-29T18:58:26.190Z,31.02
2023-01-29T19:00:24.748Z,23.10
2023-01-29T19:02:51.063Z,24.77
2023-01-29T19:05:21.236Z,26.42
2023-01-29T19:07:47.555Z,30.13
2023-01-29T19:10:16.731Z,28.98
2023-01-29T19:12:43.347Z,30.70
2023-01-29T19:15:11.356Z,26.13
2023-01-29T19:17:38.819Z,28.95
2023-01-29T19:20:05.441Z,25.57
2023-01-29T19:22:32.286Z,29.58
2023-01-29T19:24:58.633Z,28.58
2023-01-29T19:27:30.095Z,27.95
2023-01-29T19:29:58.036Z,27.23
2023-01-29T19:32:24.430Z,25.50
2023-01-29T19:34:51.240Z,28.40
2023-01-29T19:37:17.693Z,28.77
2023-01-29T19:39:44.026Z,27.52
2023-01-29T19:42:10.417Z,25.48
2023-01-29T19:44:38.888Z,24.43
2023-01-29T19:47:05.667Z,31.20
2023-01-29T19:49:33.901Z,28.65
2023-01-29T19:52:01.246Z,28.98
2023-01-29T19:54:28.028Z,26.90
2023-01-29T19:56:54.805Z,29.73
2023-01-29T19:59:21.317Z,25.48
2023-01-29T20:01:47.676Z,26.45
2023-01-29T20:04:14.134Z,29.20
2023-01-29T20:06:40.649Z,26.17
2023-01-29T20:09:07.167Z,28.80
2023-01-29T20:11:33.821Z,31.10
2023-01-29T20:14:00.165Z,26.88
2023-01-29T20:16:26.814Z,25.80
2023-01-29T20:18:53.159Z,31.40
2023-01-29T20:21:21.826Z,25.23
2023-01-29T20:23:52.048Z,28.90
2023-01-29T20:26:18.901Z,30.67
2023-01-29T20:28:47.427Z,28.95
2023-01-29T20:31:14.620Z,28.42
2023-01-29T20:33:40.985Z,33.37
2023-01-29T20:36:09.894Z,27.67
2023-01-29T20:38:36.474Z,27.95
2023-01-29T20:41:14.433Z,32.47
2023-01-29T20:43:41.288Z,31.15
2023-01-29T20:46:08.623Z,30.03
2023-01-29T20:48:35.639Z,30.63
2023-01-29T20:51:07.834Z,30.55
2023-01-29T20:53:34.197Z,31.52
2023-01-29T20:56:02.604Z,30.70
2023-01-29T20:58:30.562Z,34.00
2023-01-29T21:00:56.873Z,29.08
2023-01-29T21:03:23.492Z,26.27
2023-01-29T21:05:51.453Z,30.58
2023-01-29T21:08:17.806Z,27.13
2023-01-29T21:10:45.309Z,29.97
2023-01-29T21:13:12.144Z,31.42
2023-01-29T21:15:38.501Z,31.02
2023-01-29T21:18:06.741Z,32.28
2023-01-29T21:20:33.120Z,32.70
2023-01-29T21:22:59.609Z,31.10
2023-01-29T21:25:25.947Z,28.48
2023-01-29T21:27:52.295Z,25.17
2023-01-29T21:30:19.147Z,25.92
2023-01-29T21:32:46.126Z,33.05
2023-01-29T21:35:12.547Z,31.07
2023-01-29T21:37:38.881Z,29.80
2023-01-29T21:40:05.870Z,29.33
2023-01-29T21:42:50.893Z,31.23
2023-01-29T21:45:17.638Z,27.75
2023-01-29T21:47:43.972Z,27.77
2023-01-29T21:50:10.862Z,33.17
2023-01-29T21:52:37.299Z,34.30
2023-01-29T21:55:04.384Z,27.60
2023-01-29T21:57:30.824Z,31.17
2023-01-29T21:59:59.321Z,31.97
2023-01-29T22:02:27.555Z,30.17
2023-01-29T22:05:08.771Z,34.47
2023-01-29T22:07:44.213Z,36.25
2023-01-29T22:10:11.996Z,37.45
2023-01-29T22:12:38.906Z,29.73
2023-01-29T22:15:06.759Z,28.95
2023-01-29T22:17:33.103Z,34.85
2023-01-29T22:19:59.448Z,26.15
2023-01-29T22:22:25.792Z,27.65
2023-01-29T22:24:52.509Z,33.93
2023-01-29T22:27:18.833Z,31.05
2023-01-29T22:29:45.173Z,29.98
2023-01-29T22:32:11.730Z,33.00
2023-01-29T22:34:38.096Z,32.55
2023-01-29T22:37:04.430Z,32.17
2023-01-29T22:39:30.741Z,33.97
2023-01-29T22:41:57.050Z,32.90
2023-01-29T22:44:23.461Z,33.38
2023-01-29T22:46:50.314Z,27.38
2023-01-29T22:49:16.776Z,31.57
2023-01-29T22:51:43.604Z,34.88
2023-01-29T22:54:10.720Z,30.75
2023-01-29T22:56:37.030Z,26.30
2023-01-29T22:59:03.521Z,29.88
2023-01-29T23:01:32.187Z,35.73
2023-01-29T23:03:58.569Z,30.05
2023-01-29T23:06:24.997Z,26.98
2023-01-29T23:08:51.998Z,28.02
2023-01-29T23:11:20.430Z,34.15
2023-01-29T23:13:54.769Z,26.30
2023-01-29T23:16:27.684Z,30.75
2023-01-29T23:18:55.367Z,32.78
2023-01-29T23:21:24.817Z,26.98
2023-01-29T23:23:52.369Z,32.13
2023-01-29T23:26:37.218Z,34.57
2023-01-29T23:29:04.368Z,28.73
2023-01-29T23:31:31.867Z,27.55
2023-01-29T23:33:58.284Z,27.48
2023-01-29T23:36:24.618Z,24.60
2023-01-29T23:38:50.927Z,37.37
2023-01-29T23:41:17.290Z,32.92
2023-01-29T23:43:43.722Z,25.98
2023-01-29T23:46:10.065Z,25.30
2023-01-29T23:48:36.497Z,29.05
2023-01-29T23:51:02.861Z,26.57
2023-01-29T23:53:29.222Z,31.90
2023-01-29T23:56:05.445Z,31.23
2023-01-29T23:58:32.675Z,25.02
